Aérodrome :
LOGIN :

S'inscrire | Disclaimer

   EN    FR    IT 

 










Légende :    VFR   VFR Marginal   IFR   IFR Intensif   IFR Très Intensif
Visi : 
Plafond : 
>= 8 km
>= 3000ft
5 à 8 km
1000 à 3000 ft
1500m à 5 km
500 à 1000 ft
800 à 1500m
200 à 500 ft
< 800m
< 200 ft
Symboles :   Orages  Brouillard  Fortes neiges  Fortes précipitations  Vent > 20 kt
SIGMETs :   Divers  Orages  Givrage  Turbulence  Onde Orograph.  Cendres Volcan.







- Altitude de l'aérodrome : 359 ft
- Code IATA : BVA
- Voir les cartes d'approche


LFOB - Beauvais

DERNIER METAR :
  • 181800Z AUTO 32007KT 9999 BKN022 OVC034 04/03 Q1030 NOSIG

METARs EXPIRÉS :
  • 181730Z AUTO 32007KT 9999 BKN025 BKN030 BKN035 04/03 Q1030 NOSIG
  • 181700Z AUTO 33007KT 9999 FEW022 04/03 Q1029 NOSIG
  • 181630Z AUTO 33006KT 9999 FEW024 SCT042 05/02 Q1029 NOSIG
  • 181600Z AUTO 33008KT 9999 FEW022 OVC040 07/04 Q1029 NOSIG

TAF TAF LFOB
Valide du 18 à 18h jusqu'au 19 à 18h UTC


181700Z 1818/1918 VRB03KT CAVOK
BECMG 1900/1903 4000 BR
BECMG 1905/1907 0200 FG VV///
BECMG 1910/1913 3000 BR OVC003
BECMG 1916/1918 6000 NSW OVC010
ATIS : +33 3 44 11 49 28
Pas de NOTAMs connus pour ce terrain.



MET'MAP, la Météo Aéronautique d'un coup d'oeil ! - Copyright ORBIFLY Décembre 2007 - Disclaimer

ORBIFLY MET'MAP TEAM :

Programmation & Développement : Alexandra Zaïnal
Conception & Développement : Baudouin d'Aumeries
Co-Programmation & Développement : Marc-Olivier Méhu
Soutien technique & logistique : Manuel Goepfert

Contact : metmap@orbifly.com




SOURCES & CREDITS :

   NOAA